Time;durP1;ratioP1;P1;durP2;ratioP2;P2;SDS_P1;SDS_P2;PMS_P1;PMS_P2;Temp;Humidity;BMP_temperature;BMP_pressure;BME280_temperature;BME280_humidity;BME280_pressure;Samples;Min_cycle;Max_cycle;Signal;HPM_P1;HPM_P2
2023/11/06 00:01:51;;;;;;;5.10;1.48;;;;;;;13.04;59.02;97841.41;5091808;28;20103;-48
2023/11/06 00:04:16;;;;;;;4.35;1.58;;;;;;;13.00;59.33;97841.09;5091828;28;20024;-48
2023/11/06 00:06:42;;;;;;;4.38;1.50;;;;;;;12.96;59.43;97846.03;5091850;28;20020;-48
2023/11/06 00:09:08;;;;;;;3.58;1.50;;;;;;;12.91;59.33;97840.66;5090529;28;20486;-48
2023/11/06 00:11:34;;;;;;;5.95;1.60;;;;;;;12.91;59.54;97842.50;5092022;28;20023;-48
2023/11/06 00:14:00;;;;;;;3.55;1.20;;;;;;;12.95;59.18;97841.78;5091806;28;20028;-48
2023/11/06 00:16:26;;;;;;;3.58;1.27;;;;;;;12.93;58.81;97838.59;5091683;28;20028;-48
2023/11/06 00:18:51;;;;;;;4.60;1.17;;;;;;;12.89;59.09;97831.41;5091593;28;20551;-48
2023/11/06 00:21:23;;;;;;;3.15;1.25;;;;;;;12.79;59.38;97837.28;5091750;28;20028;-48
2023/11/06 00:23:48;;;;;;;4.10;1.67;;;;;;;12.77;59.48;97834.88;5090430;28;20024;-48
2023/11/06 00:26:14;;;;;;;4.00;1.40;;;;;;;12.79;59.42;97834.66;5091593;28;20121;-48
2023/11/06 00:28:42;;;;;;;3.67;1.15;;;;;;;12.81;59.75;97831.78;5091604;28;20028;-48
2023/11/06 00:31:08;;;;;;;4.00;1.13;;;;;;;12.86;59.18;97843.22;5090663;28;20452;-48
2023/11/06 00:33:33;;;;;;;2.35;1.40;;;;;;;12.82;59.34;97836.84;5091602;28;20414;-48
2023/11/06 00:35:59;;;;;;;4.80;1.77;;;;;;;12.81;59.45;97843.13;5091576;28;20024;-48
2023/11/06 00:38:26;;;;;;;3.28;1.00;;;;;;;12.80;59.31;97846.81;5091576;28;20545;-48
2023/11/06 00:40:51;;;;;;;3.15;1.20;;;;;;;12.78;59.54;97849.66;5091529;28;20085;-48
2023/11/06 00:43:17;;;;;;;4.38;1.17;;;;;;;12.76;59.23;97846.47;5091485;28;20517;-48
2023/11/06 00:45:43;;;;;;;3.88;1.17;;;;;;;12.73;59.36;97846.91;5091477;28;20520;-48
2023/11/06 00:48:09;;;;;;;2.58;1.40;;;;;;;12.70;59.76;97854.50;5090289;28;20055;-48
2023/11/06 00:50:35;;;;;;;3.25;1.27;;;;;;;12.64;59.58;97850.19;5091401;28;20500;-48
2023/11/06 00:53:00;;;;;;;4.57;1.30;;;;;;;12.56;60.05;97852.13;5090237;28;20494;-48
2023/11/06 00:55:26;;;;;;;2.42;1.25;;;;;;;12.56;60.18;97860.03;5090076;28;20122;-48
2023/11/06 00:57:54;;;;;;;6.25;1.15;;;;;;;12.56;59.93;97849.50;5091385;28;20031;-48
2023/11/06 01:00:21;;;;;;;2.63;1.30;;;;;;;12.60;59.87;97860.38;5090047;28;20055;-48
2023/11/06 01:02:50;;;;;;;3.55;1.30;;;;;;;12.60;59.61;97855.09;5090012;28;20059;-48
2023/11/06 01:05:16;;;;;;;6.50;1.52;;;;;;;12.68;59.21;97860.00;5090016;28;20016;-48
2023/11/06 01:07:42;;;;;;;3.70;1.10;;;;;;;12.68;59.28;97862.63;5091117;28;20028;-48
2023/11/06 01:10:08;;;;;;;6.32;1.30;;;;;;;12.70;59.41;97857.94;5091237;28;20032;-48
2023/11/06 01:12:34;;;;;;;3.58;1.45;;;;;;;12.75;59.07;97860.66;5091910;28;20031;-48
2023/11/06 01:15:01;;;;;;;4.07;1.42;;;;;;;12.75;58.93;97859.84;5093567;28;20032;-48
2023/11/06 01:17:27;;;;;;;2.88;1.10;;;;;;;12.78;58.81;97865.47;5094500;28;20040;-48
2023/11/06 01:19:53;;;;;;;4.05;3.53;;;;;;;12.81;58.59;97858.13;5094868;28;20016;-49
2023/11/06 01:22:19;;;;;;;8.25;3.67;;;;;;;12.72;59.85;97855.06;5094900;28;20428;-48
2023/11/06 01:24:45;;;;;;;23.40;21.10;;;;;;;12.56;61.36;97851.34;5094632;28;20111;-48
2023/11/06 01:27:11;;;;;;;4.70;2.47;;;;;;;12.37;61.66;97862.03;5094710;28;20105;-48
2023/11/06 01:29:37;;;;;;;4.47;2.13;;;;;;;12.22;61.65;97866.19;5094873;28;20031;-48
2023/11/06 01:32:04;;;;;;;3.70;1.55;;;;;;;12.19;62.23;97865.59;5094545;28;20107;-48
2023/11/06 01:34:31;;;;;;;28.75;18.30;;;;;;;12.29;62.08;97869.47;5093178;28;20032;-48
2023/11/06 01:36:57;;;;;;;27.33;21.02;;;;;;;12.38;61.54;97870.72;5093233;28;20459;-48
2023/11/06 01:39:22;;;;;;;18.98;16.95;;;;;;;12.49;61.24;97861.97;5094408;28;20105;-48
2023/11/06 01:41:48;;;;;;;6.10;4.68;;;;;;;12.61;60.65;97863.78;5092977;28;20085;-48
2023/11/06 01:44:15;;;;;;;6.05;3.90;;;;;;;12.67;60.15;97874.19;5092976;28;20055;-48
2023/11/06 01:46:40;;;;;;;11.90;9.90;;;;;;;12.72;60.31;97858.50;5092930;28;20065;-48
2023/11/06 01:49:07;;;;;;;5.00;2.22;;;;;;;12.76;59.53;97858.84;5094227;28;20506;-48
2023/11/06 01:51:37;;;;;;;19.63;12.43;;;;;;;12.77;59.68;97878.84;5094147;28;20016;-48
2023/11/06 01:54:03;;;;;;;6.40;3.95;;;;;;;12.80;59.23;97859.97;5094118;28;20030;-48
2023/11/06 01:56:34;;;;;;;4.10;1.55;;;;;;;12.77;58.93;97855.94;5094061;28;20458;-48
2023/11/06 01:59:03;;;;;;;3.25;1.00;;;;;;;12.72;59.18;97857.72;5092755;28;20035;-48
2023/11/06 02:01:32;;;;;;;2.50;1.13;;;;;;;12.72;59.30;97857.72;5092642;28;20032;-48
2023/11/06 02:03:59;;;;;;;3.97;0.93;;;;;;;12.69;58.74;97860.78;5093898;28;20027;-48
2023/11/06 02:06:30;;;;;;;5.47;0.75;;;;;;;12.68;58.79;97856.56;5092555;28;20024;-48
2023/11/06 02:08:58;;;;;;;3.50;1.13;;;;;;;12.68;58.83;97859.22;5093844;28;20131;-48
2023/11/06 02:11:24;;;;;;;2.65;0.90;;;;;;;12.68;59.01;97854.75;5092610;28;20025;-48
2023/11/06 02:13:50;;;;;;;2.47;1.15;;;;;;;12.65;58.93;97854.41;5093795;28;20024;-48
2023/11/06 02:16:15;;;;;;;4.18;1.35;;;;;;;12.62;58.83;97855.69;5093721;28;20035;-48
2023/11/06 02:18:41;;;;;;;4.70;1.48;;;;;;;12.63;58.81;97861.72;5093442;28;20433;-48
2023/11/06 02:21:07;;;;;;;2.67;1.33;;;;;;;12.67;58.41;97857.59;5092338;28;20083;-48
2023/11/06 02:23:33;;;;;;;5.30;1.00;;;;;;;12.71;58.78;97859.53;5093332;28;20020;-48
2023/11/06 02:25:59;;;;;;;1.77;0.70;;;;;;;12.78;58.42;97859.41;5091249;28;20390;-48
2023/11/06 02:28:25;;;;;;;4.13;0.70;;;;;;;12.79;58.15;97860.97;5092172;28;20036;-48
2023/11/06 02:30:52;;;;;;;3.05;1.00;;;;;;;12.78;58.22;97856.78;5093381;28;20106;-48
2023/11/06 02:33:19;;;;;;;2.72;0.80;;;;;;;12.78;58.37;97859.41;5093362;28;20024;-48
2023/11/06 02:35:45;;;;;;;3.60;1.15;;;;;;;12.77;58.31;97863.84;5093269;28;20028;-48
2023/11/06 02:38:11;;;;;;;6.72;0.93;;;;;;;12.78;58.19;97854.13;5092007;28;20055;-48
2023/11/06 02:40:37;;;;;;;3.88;0.70;;;;;;;12.77;58.07;97853.31;5091930;28;20401;-48
2023/11/06 02:43:03;;;;;;;4.93;0.90;;;;;;;12.76;58.03;97859.63;5091871;28;20089;-48
2023/11/06 02:45:29;;;;;;;1.80;0.70;;;;;;;12.77;58.14;97860.41;5093214;28;20107;-48
2023/11/06 02:47:55;;;;;;;5.18;0.80;;;;;;;12.78;57.77;97856.78;5093189;28;20607;-48
2023/11/06 02:50:21;;;;;;;2.78;0.80;;;;;;;12.76;58.30;97858.84;5091700;28;20059;-48
2023/11/06 02:52:47;;;;;;;1.10;0.63;;;;;;;12.76;58.58;97853.56;5093193;28;20028;-48
2023/11/06 02:55:13;;;;;;;3.30;0.80;;;;;;;12.68;59.10;97852.09;5092983;28;20460;-48
2023/11/06 02:57:38;;;;;;;4.45;1.10;;;;;;;12.64;58.89;97858.88;5092892;28;20114;-48
2023/11/06 03:00:06;;;;;;;1.60;0.70;;;;;;;12.63;58.88;97870.41;5092888;28;20113;-48
2023/11/06 03:02:34;;;;;;;4.97;1.13;;;;;;;12.61;59.20;97872.50;5092743;28;20471;-48
2023/11/06 03:05:01;;;;;;;3.65;0.90;;;;;;;12.62;59.14;97870.69;5091534;28;20107;-48
2023/11/06 03:07:27;;;;;;;2.90;0.90;;;;;;;12.56;59.04;97865.28;5092799;28;20051;-48
2023/11/06 03:09:52;;;;;;;2.55;0.90;;;;;;;12.53;59.02;97873.66;5092747;28;20493;-48
2023/11/06 03:12:18;;;;;;;2.20;0.52;;;;;;;12.52;58.79;97876.53;5091337;28;20481;-48
2023/11/06 03:14:44;;;;;;;1.48;0.70;;;;;;;12.46;59.05;97880.09;5092633;28;20031;-48
2023/11/06 03:17:10;;;;;;;4.60;1.10;;;;;;;12.42;59.09;97887.66;5092336;28;20030;-49
2023/11/06 03:19:36;;;;;;;2.58;0.50;;;;;;;12.39;58.67;97882.84;5092559;28;20023;-48
2023/11/06 03:22:01;;;;;;;1.77;0.65;;;;;;;12.30;58.99;97887.66;5092413;28;20020;-48
2023/11/06 03:24:27;;;;;;;1.33;0.77;;;;;;;12.29;59.51;97880.78;5092406;28;20026;-48
2023/11/06 03:26:53;;;;;;;2.85;0.93;;;;;;;12.29;59.23;97885.25;5092396;28;20017;-48
2023/11/06 03:29:18;;;;;;;3.33;1.58;;;;;;;12.29;59.38;97893.16;5091176;28;20072;-48
2023/11/06 03:31:44;;;;;;;4.55;0.90;;;;;;;12.30;58.86;97885.03;5092341;28;20122;-48
2023/11/06 03:34:10;;;;;;;6.47;1.48;;;;;;;12.33;58.97;97873.25;5092334;28;20024;-48
2023/11/06 03:36:44;;;;;;;2.70;0.93;;;;;;;12.33;59.15;97865.34;5090611;28;20028;-48
2023/11/06 03:39:10;;;;;;;1.65;0.70;;;;;;;12.35;59.03;97868.53;5092471;28;20020;-48
2023/11/06 03:41:35;;;;;;;5.82;1.23;;;;;;;12.31;59.42;97862.94;5090864;28;20493;-48
2023/11/06 03:44:01;;;;;;;1.50;0.90;;;;;;;12.33;59.16;97852.97;5090747;28;20024;-48
2023/11/06 03:46:27;;;;;;;1.58;0.77;;;;;;;12.38;59.27;97853.09;5090810;28;20401;-48
2023/11/06 03:48:52;;;;;;;2.95;0.80;;;;;;;12.48;58.64;97851.72;5092152;28;20020;-48
2023/11/06 03:51:18;;;;;;;2.20;0.82;;;;;;;12.50;58.63;97853.06;5092027;28;20016;-48
2023/11/06 03:53:44;;;;;;;2.53;0.50;;;;;;;12.52;58.40;97851.00;5090673;28;20494;-48
2023/11/06 03:56:10;;;;;;;5.45;1.05;;;;;;;12.57;58.28;97848.47;5090798;28;20027;-48
2023/11/06 03:58:35;;;;;;;2.25;0.90;;;;;;;12.64;58.40;97844.91;5091954;28;20030;-48
2023/11/06 04:01:02;;;;;;;2.92;0.85;;;;;;;12.70;57.54;97851.88;5090619;28;20405;-48
2023/11/06 04:03:29;;;;;;;2.05;0.70;;;;;;;12.74;57.92;97858.28;5091832;28;20020;-48
2023/11/06 04:05:54;;;;;;;2.13;0.70;;;;;;;12.76;57.94;97858.84;5091865;28;20401;-48
2023/11/06 04:08:21;;;;;;;1.25;0.57;;;;;;;12.82;57.47;97857.06;5091848;28;20024;-48
2023/11/06 04:10:48;;;;;;;4.28;1.10;;;;;;;12.82;57.49;97868.44;5091906;28;20130;-48
2023/11/06 04:13:14;;;;;;;2.75;0.80;;;;;;;12.84;57.58;97866.38;5091865;28;20111;-48
2023/11/06 04:15:39;;;;;;;2.78;0.85;;;;;;;12.84;57.25;97862.91;5091740;28;20017;-48
2023/11/06 04:18:05;;;;;;;5.00;1.20;;;;;;;12.78;57.74;97869.94;5091568;28;20048;-48
2023/11/06 04:20:31;;;;;;;1.52;0.50;;;;;;;12.79;57.67;97861.78;5091755;28;20020;-48
2023/11/06 04:22:56;;;;;;;4.28;0.95;;;;;;;12.86;57.63;97871.38;5091895;28;20024;-48
2023/11/06 04:25:23;;;;;;;1.63;0.80;;;;;;;12.91;56.89;97872.28;5091720;28;20021;-48
2023/11/06 04:27:49;;;;;;;2.75;0.82;;;;;;;12.92;57.08;97873.88;5091726;28;20031;-48
2023/11/06 04:30:15;;;;;;;4.82;0.70;;;;;;;12.92;57.41;97871.25;5090258;28;20032;-48
2023/11/06 04:32:40;;;;;;;3.83;1.67;;;;;;;12.89;57.42;97871.72;5090349;28;20028;-48
2023/11/06 04:35:06;;;;;;;7.60;6.78;;;;;;;12.98;57.66;97875.56;5091593;28;20028;-48
2023/11/06 04:37:34;;;;;;;4.30;1.23;;;;;;;13.06;57.12;97886.75;5091577;28;20406;-48
2023/11/06 04:40:01;;;;;;;4.18;0.77;;;;;;;13.12;57.22;97877.91;5090317;28;20054;-48
2023/11/06 04:42:26;;;;;;;3.67;0.70;;;;;;;13.16;56.80;97871.94;5090125;28;20128;-48
2023/11/06 04:44:52;;;;;;;3.42;1.45;;;;;;;13.19;58.48;97875.94;5091521;28;20021;-48
2023/11/06 04:47:18;;;;;;;2.38;0.75;;;;;;;13.00;59.49;97880.63;5090203;28;20371;-48
2023/11/06 04:49:44;;;;;;;1.15;0.50;;;;;;;12.77;60.11;97879.66;5095394;28;20095;-48
2023/11/06 04:52:09;;;;;;;1.13;0.40;;;;;;;12.56;60.50;97883.72;5095292;28;20024;-48
2023/11/06 04:54:35;;;;;;;8.82;5.07;;;;;;;12.52;61.02;97892.31;5095292;28;20095;-48
2023/11/06 04:57:01;;;;;;;1.08;0.80;;;;;;;12.55;60.58;97892.63;5093954;28;20448;-48
2023/11/06 04:59:27;;;;;;;2.08;0.75;;;;;;;12.64;60.83;97889.66;5095142;28;20036;-48
2023/11/06 05:01:52;;;;;;;1.75;0.82;;;;;;;12.70;59.93;97884.25;5095208;28;20020;-48
2023/11/06 05:04:19;;;;;;;2.90;2.00;;;;;;;12.79;59.51;97889.94;5093744;28;20073;-48
2023/11/06 05:06:45;;;;;;;4.32;2.85;;;;;;;12.86;58.89;97909.06;5095059;28;20032;-48
2023/11/06 05:09:11;;;;;;;3.53;2.10;;;;;;;12.89;58.42;97900.69;5095073;28;20016;-48
2023/11/06 05:11:38;;;;;;;1.52;0.60;;;;;;;12.92;58.50;97905.47;5095279;28;20073;-48
2023/11/06 05:14:03;;;;;;;2.22;0.60;;;;;;;12.98;58.29;97904.53;5093642;28;20615;-48
2023/11/06 05:16:29;;;;;;;4.55;0.80;;;;;;;13.01;58.05;97903.28;5094852;28;20107;-48
2023/11/06 05:18:55;;;;;;;1.65;0.90;;;;;;;12.98;58.09;97914.28;5094645;28;20056;-48
2023/11/06 05:21:27;;;;;;;2.70;1.63;;;;;;;12.98;58.50;97909.03;5093457;28;20016;-48
2023/11/06 05:23:54;;;;;;;2.40;0.63;;;;;;;12.99;58.72;97914.03;5093497;28;20490;-48
2023/11/06 05:26:21;;;;;;;2.35;1.00;;;;;;;12.94;58.78;97921.84;5093395;28;20130;-48
2023/11/06 05:28:48;;;;;;;0.82;0.60;;;;;;;12.90;59.07;97920.72;5094714;28;20062;-48
2023/11/06 05:31:14;;;;;;;3.17;1.40;;;;;;;12.80;59.88;97938.97;5094595;28;20051;-48
2023/11/06 05:33:40;;;;;;;3.85;1.73;;;;;;;12.83;61.09;97937.69;5094848;28;20082;-48
2023/11/06 05:36:07;;;;;;;2.67;0.60;;;;;;;12.90;60.74;97941.78;5094760;28;20059;-48
2023/11/06 05:38:33;;;;;;;1.65;0.50;;;;;;;12.76;61.33;97940.47;5076455;28;20024;-48
2023/11/06 05:40:59;;;;;;;2.47;0.80;;;;;;;12.44;63.04;97947.94;5094425;28;20070;-48
2023/11/06 05:43:25;;;;;;;5.55;1.20;;;;;;;12.20;63.93;97937.44;5094230;28;20027;-48
2023/11/06 05:45:50;;;;;;;2.63;1.50;;;;;;;12.11;64.71;97944.88;5094386;28;20012;-48
2023/11/06 05:48:16;;;;;;;3.92;1.55;;;;;;;12.06;65.41;97941.31;5093124;28;20071;-48
2023/11/06 05:50:42;;;;;;;3.00;0.50;;;;;;;12.06;64.83;97947.38;5059377;28;20024;-48
2023/11/06 05:53:07;;;;;;;0.68;0.68;;;;;;;11.98;65.11;97950.34;5092872;28;20493;-48
2023/11/06 05:55:33;;;;;;;3.55;1.10;;;;;;;11.99;65.11;97949.28;5094132;28;20020;-48
2023/11/06 05:57:59;;;;;;;3.45;1.10;;;;;;;12.07;65.75;97948.16;5092781;28;20028;-48
2023/11/06 06:00:25;;;;;;;1.20;0.80;;;;;;;12.16;65.66;97944.97;5093800;28;20024;-48
2023/11/06 06:02:51;;;;;;;1.38;0.80;;;;;;;12.16;65.35;97952.84;5093936;28;20028;-48
2023/11/06 06:05:17;;;;;;;6.80;2.40;;;;;;;12.10;65.91;97959.03;5093929;28;20574;-48
2023/11/06 06:07:43;;;;;;;3.22;0.93;;;;;;;12.14;65.57;97962.81;5092698;28;20055;-48
2023/11/06 06:10:11;;;;;;;1.67;0.73;;;;;;;12.07;66.03;97948.94;5092536;28;20024;-48
2023/11/06 06:12:37;;;;;;;1.92;0.90;;;;;;;12.07;65.96;97951.59;5094087;28;20398;-48
2023/11/06 06:15:03;;;;;;;2.20;0.70;;;;;;;12.10;66.37;97955.59;5075708;28;20028;-48
2023/11/06 06:17:29;;;;;;;3.55;1.15;;;;;;;12.05;66.17;97964.16;5093486;28;20127;-49
2023/11/06 06:19:54;;;;;;;2.35;0.75;;;;;;;12.04;66.53;97964.41;5092476;28;20474;-49
2023/11/06 06:22:20;;;;;;;2.40;0.88;;;;;;;12.05;66.19;97971.25;5093860;28;20089;-48
2023/11/06 06:24:46;;;;;;;2.35;1.30;;;;;;;12.11;66.16;97968.53;5093462;28;20020;-48
2023/11/06 06:27:12;;;;;;;2.70;0.90;;;;;;;12.09;65.81;97981.13;5093431;28;20066;-48
2023/11/06 06:29:37;;;;;;;2.63;1.10;;;;;;;12.15;66.44;97977.56;5093530;28;20028;-48
2023/11/06 06:32:03;;;;;;;1.83;1.00;;;;;;;12.23;65.76;97989.56;5093651;28;20054;-48
2023/11/06 06:34:29;;;;;;;2.22;0.82;;;;;;;12.10;66.24;97974.81;5093371;28;20036;-48
2023/11/06 06:36:55;;;;;;;2.10;0.57;;;;;;;12.09;66.42;97982.94;5092019;28;20103;-48
2023/11/06 06:39:21;;;;;;;3.20;1.05;;;;;;;12.06;66.99;97983.41;5093201;28;20032;-48
2023/11/06 06:41:47;;;;;;;1.67;0.57;;;;;;;12.10;66.21;97990.59;5093194;28;20062;-48
2023/11/06 06:44:13;;;;;;;1.90;0.75;;;;;;;12.09;66.69;97996.91;5093177;28;20390;-48
2023/11/06 06:46:38;;;;;;;8.40;1.88;;;;;;;12.11;67.26;97991.38;5091828;28;20485;-48
2023/11/06 06:49:04;;;;;;;3.50;0.73;;;;;;;12.07;66.99;97993.66;5091986;28;20107;-48
2023/11/06 06:51:30;;;;;;;7.03;4.63;;;;;;;12.08;66.59;98000.53;5091715;28;20374;-48
2023/11/06 06:53:57;;;;;;;3.80;1.73;;;;;;;12.13;66.36;98008.56;5093029;28;20028;-48
2023/11/06 06:56:23;;;;;;;5.28;1.10;;;;;;;12.15;66.20;98005.69;5093211;28;20016;-48
2023/11/06 06:58:49;;;;;;;2.88;1.08;;;;;;;12.16;66.58;97996.78;5093302;28;20477;-48
2023/11/06 07:01:17;;;;;;;4.28;1.35;;;;;;;12.23;66.00;98005.34;5092892;28;20107;-48
2023/11/06 07:03:43;;;;;;;4.32;0.75;;;;;;;12.32;65.37;98011.88;5091468;28;20028;-48
2023/11/06 07:06:11;;;;;;;2.40;1.17;;;;;;;12.40;65.09;98016.03;5092745;28;20171;-48
2023/11/06 07:08:37;;;;;;;2.97;0.90;;;;;;;12.47;64.76;98016.69;5092772;28;20042;-49
2023/11/06 07:11:03;;;;;;;2.35;0.90;;;;;;;12.52;64.36;98016.03;5091984;28;20039;-48
2023/11/06 07:13:29;;;;;;;2.85;1.50;;;;;;;12.63;64.21;98028.38;5091355;28;20028;-48
2023/11/06 07:15:54;;;;;;;2.92;0.85;;;;;;;12.71;63.21;98035.13;5092675;28;20025;-48
2023/11/06 07:18:20;;;;;;;3.58;1.00;;;;;;;12.75;62.65;98046.78;5092267;28;20040;-48
2023/11/06 07:20:46;;;;;;;3.22;1.05;;;;;;;12.79;62.85;98045.31;5092566;28;20020;-48
2023/11/06 07:23:12;;;;;;;4.57;1.40;;;;;;;12.83;62.92;98048.28;5092692;28;20023;-48
2023/11/06 07:25:38;;;;;;;3.40;1.10;;;;;;;12.86;62.48;98040.72;5091179;28;20077;-49
2023/11/06 07:28:04;;;;;;;2.53;0.90;;;;;;;12.94;62.52;98047.47;5092361;28;20058;-48
2023/11/06 07:30:30;;;;;;;4.95;1.02;;;;;;;13.04;61.95;98052.13;5092336;28;20031;-48
2023/11/06 07:32:56;;;;;;;6.28;2.42;;;;;;;13.18;62.08;98059.56;5092388;28;20024;-48
2023/11/06 07:35:21;;;;;;;2.97;0.95;;;;;;;13.35;61.40;98067.56;5091015;28;20032;-48
2023/11/06 07:37:47;;;;;;;5.25;1.13;;;;;;;13.48;61.04;98068.34;5092374;28;20020;-48
2023/11/06 07:40:16;;;;;;;1.80;0.82;;;;;;;13.58;60.17;98066.72;5092261;28;20024;-48
2023/11/06 07:42:42;;;;;;;5.47;1.13;;;;;;;13.57;59.62;98065.09;5092076;28;20028;-48
2023/11/06 07:45:08;;;;;;;7.00;3.55;;;;;;;13.84;59.77;98069.81;5092204;28;20031;-48
2023/11/06 07:47:36;;;;;;;2.42;1.30;;;;;;;13.96;58.35;98060.03;5092066;28;20028;-48
2023/11/06 07:50:03;;;;;;;5.20;1.25;;;;;;;14.04;58.43;98063.28;5091993;28;20020;-48
2023/11/06 07:52:30;;;;;;;4.25;1.65;;;;;;;14.30;58.17;98075.06;5092003;28;20036;-48
2023/11/06 07:54:57;;;;;;;2.47;0.88;;;;;;;14.37;57.05;98076.53;5091970;28;20122;-48
2023/11/06 07:57:22;;;;;;;2.88;1.00;;;;;;;14.35;57.27;98069.88;5091940;28;20024;-48
2023/11/06 07:59:48;;;;;;;3.65;1.17;;;;;;;14.41;57.16;98076.84;5092044;28;20027;-48
2023/11/06 08:02:14;;;;;;;3.13;0.88;;;;;;;14.47;56.61;98069.81;5091856;28;20453;-48
2023/11/06 08:04:40;;;;;;;2.58;0.85;;;;;;;14.95;55.43;98086.88;5091792;28;20024;-48
2023/11/06 08:07:06;;;;;;;7.32;1.33;;;;;;;15.20;54.09;98091.72;5090524;28;20081;-48
2023/11/06 08:09:33;;;;;;;3.03;0.65;;;;;;;15.05;53.98;98087.06;5091900;28;20073;-48
2023/11/06 08:12:00;;;;;;;2.38;0.77;;;;;;;14.99;54.73;98098.59;5091856;28;20042;-48
2023/11/06 08:14:25;;;;;;;3.97;0.93;;;;;;;15.15;54.23;98103.06;5091715;28;20039;-48
2023/11/06 08:16:51;;;;;;;3.72;1.38;;;;;;;15.29;54.27;98107.97;5091785;28;20028;-48
2023/11/06 08:19:16;;;;;;;1.73;0.77;;;;;;;16.22;52.61;98100.03;5091601;28;20094;-48
2023/11/06 08:21:42;;;;;;;2.08;0.90;;;;;;;17.24;49.24;98105.25;5091163;28;20074;-49
2023/11/06 08:24:08;;;;;;;1.25;0.57;;;;;;;17.92;46.97;98109.78;5094478;28;20073;-48
2023/11/06 08:26:34;;;;;;;4.93;0.85;;;;;;;17.85;46.72;98109.22;5094682;28;20028;-48
2023/11/06 08:28:59;;;;;;;3.88;1.23;;;;;;;18.08;45.65;98108.75;5094615;28;20024;-46
2023/11/06 08:31:26;;;;;;;2.50;0.80;;;;;;;18.17;45.75;98117.78;5094436;28;20085;-46
2023/11/06 08:33:51;;;;;;;3.42;0.93;;;;;;;18.27;45.26;98122.31;5095747;28;20031;-46
2023/11/06 08:36:17;;;;;;;3.80;2.13;;;;;;;18.73;45.32;98124.16;5095717;28;20024;-45
2023/11/06 08:38:43;;;;;;;2.78;1.42;;;;;;;19.67;43.99;98119.16;5095718;28;20031;-46
2023/11/06 08:41:09;;;;;;;3.35;0.80;;;;;;;19.69;41.85;98113.56;5095577;28;20051;-46
2023/11/06 08:43:35;;;;;;;2.75;1.00;;;;;;;18.83;42.93;98121.53;5094187;28;20020;-46
2023/11/06 08:46:04;;;;;;;3.25;0.80;;;;;;;18.16;44.24;98137.44;5094225;28;20028;-46
2023/11/06 08:48:29;;;;;;;1.75;0.52;;;;;;;17.44;45.58;98132.94;5095410;28;20016;-46
2023/11/06 08:50:55;;;;;;;2.65;0.80;;;;;;;17.04;46.23;98147.56;5094192;28;20035;-46
2023/11/06 08:53:21;;;;;;;3.50;1.60;;;;;;;16.93;47.64;98133.44;5095352;28;20031;-46
2023/11/06 08:55:49;;;;;;;4.07;0.80;;;;;;;16.95;46.75;98150.69;5093759;28;20077;-46
2023/11/06 08:58:18;;;;;;;3.45;0.90;;;;;;;16.60;48.18;98142.44;5094651;28;20039;-46
2023/11/06 09:00:45;;;;;;;3.75;0.90;;;;;;;16.52;48.78;98139.22;5095072;28;20036;-46
2023/11/06 09:03:14;;;;;;;5.63;0.90;;;;;;;16.84;48.58;98140.25;5095027;28;20024;-46
2023/11/06 09:05:41;;;;;;;2.63;1.00;;;;;;;17.08;47.76;98149.47;5093831;28;20028;-46
2023/11/06 09:08:07;;;;;;;0.82;0.45;;;;;;;17.99;46.17;98139.53;5093819;28;20034;-46
2023/11/06 09:10:33;;;;;;;3.80;0.70;;;;;;;19.29;43.44;98137.41;5095069;28;20547;-46
2023/11/06 09:13:00;;;;;;;3.25;0.60;;;;;;;20.13;41.85;98152.78;5095059;28;20034;-46
2023/11/06 09:15:25;;;;;;;2.78;1.02;;;;;;;20.68;39.92;98147.34;5094881;28;20432;-46
2023/11/06 09:17:51;;;;;;;1.92;0.60;;;;;;;21.42;38.56;98147.19;5093377;28;20139;-47
2023/11/06 09:20:17;;;;;;;2.08;0.73;;;;;;;20.92;38.11;98144.75;5093489;28;20051;-46
2023/11/06 09:22:43;;;;;;;2.55;0.98;;;;;;;20.25;40.23;98153.25;5094746;28;20024;-46
2023/11/06 09:25:08;;;;;;;0.50;0.40;;;;;;;19.85;40.31;98146.28;5094982;28;20024;-46
2023/11/06 09:27:35;;;;;;;2.85;0.60;;;;;;;19.27;41.52;98152.03;5093544;28;20031;-46
2023/11/06 09:30:01;;;;;;;1.45;0.40;;;;;;;18.56;42.17;98145.72;5093337;28;20020;-46
2023/11/06 09:32:27;;;;;;;4.43;0.82;;;;;;;17.80;43.98;98159.63;5094651;28;20020;-46
2023/11/06 09:34:53;;;;;;;1.27;0.50;;;;;;;17.25;45.02;98170.50;5093980;28;20024;-46
2023/11/06 09:37:19;;;;;;;1.63;0.80;;;;;;;16.79;46.49;98170.16;5094470;28;20024;-46
2023/11/06 09:39:44;;;;;;;2.25;0.70;;;;;;;16.63;47.28;98153.34;5094582;28;20078;-46
2023/11/06 09:42:11;;;;;;;4.20;0.57;;;;;;;16.42;47.49;98194.75;5094440;28;20089;-46
2023/11/06 09:44:38;;;;;;;1.35;0.60;;;;;;;16.13;48.37;98171.13;5092998;28;20028;-46
2023/11/06 09:47:08;;;;;;;2.58;0.60;;;;;;;15.88;49.62;98166.38;5094549;28;20039;-46
2023/11/06 09:49:43;;;;;;;6.53;2.70;;;;;;;15.66;50.30;98194.66;5094603;28;20383;-46
2023/11/06 09:52:09;;;;;;;2.53;1.00;;;;;;;15.50;51.42;98194.44;5094508;28;20028;-46
2023/11/06 09:54:41;;;;;;;6.50;0.80;;;;;;;15.52;51.51;98202.16;5094182;28;20047;-46
2023/11/06 09:57:09;;;;;;;4.82;1.58;;;;;;;15.45;51.69;98193.56;5094092;28;20409;-46
2023/11/06 09:59:34;;;;;;;2.13;0.70;;;;;;;15.50;52.21;98189.16;5092786;28;20111;-46
2023/11/06 10:02:00;;;;;;;2.50;0.60;;;;;;;15.58;51.63;98190.59;5094047;28;20034;-48
2023/11/06 10:04:28;;;;;;;6.35;1.67;;;;;;;15.72;51.63;98185.75;5093990;28;20539;-48
2023/11/06 10:06:53;;;;;;;37.47;34.20;;;;;;;15.83;51.35;98199.91;5092638;28;20059;-48
2023/11/06 10:09:24;;;;;;;2.83;1.30;;;;;;;15.96;51.09;98199.56;5093878;28;20498;-48
2023/11/06 10:11:51;;;;;;;3.08;0.65;;;;;;;16.01;50.87;98204.09;5092549;28;20038;-48
2023/11/06 10:14:17;;;;;;;2.30;0.63;;;;;;;16.05;50.54;98195.41;5093747;28;20031;-48
2023/11/06 10:16:43;;;;;;;3.50;1.08;;;;;;;16.14;51.42;98206.38;5092477;28;20071;-48
2023/11/06 10:19:12;;;;;;;5.95;0.85;;;;;;;16.26;49.85;98196.44;5092189;28;20059;-49
2023/11/06 10:21:40;;;;;;;3.67;2.47;;;;;;;16.32;49.87;98205.25;5093564;28;20112;-48
2023/11/06 10:24:07;;;;;;;4.55;0.50;;;;;;;16.36;49.67;98204.47;5092208;28;20024;-48
2023/11/06 10:26:33;;;;;;;3.20;1.00;;;;;;;16.41;49.33;98210.88;5093621;28;20024;-48
2023/11/06 10:29:10;;;;;;;4.22;0.50;;;;;;;16.31;49.02;98198.34;5093795;28;20020;-48
2023/11/06 10:31:40;;;;;;;2.58;0.68;;;;;;;16.16;49.65;98207.72;5092152;28;20027;-48
2023/11/06 10:34:41;;;;;;;3.10;2.33;;;;;;;16.01;50.17;98196.94;5075862;28;20032;-48
2023/11/06 10:37:13;;;;;;;2.55;0.75;;;;;;;16.05;50.38;98213.13;5014302;28;20025;-49
2023/11/06 10:39:56;;;;;;;1.23;0.70;;;;;;;16.02;50.66;98198.56;5031027;28;20046;-48
2023/11/06 10:42:24;;;;;;;6.00;0.88;;;;;;;16.05;50.74;98203.34;5014293;28;20033;-48
2023/11/06 10:44:59;;;;;;;1.15;0.73;;;;;;;16.14;50.83;98209.03;5013803;28;20034;-49
2023/11/06 10:47:36;;;;;;;6.50;1.00;;;;;;;16.33;50.96;98201.53;5030402;28;20030;-48
2023/11/06 10:50:12;;;;;;;4.28;1.83;;;;;;;16.32;50.26;98192.78;5030701;28;20039;-49
2023/11/06 10:52:45;;;;;;;2.58;0.80;;;;;;;16.37;50.26;98202.63;5014161;28;20034;-48
2023/11/06 10:55:13;;;;;;;6.03;2.10;;;;;;;16.29;50.55;98200.44;5030679;28;20033;-48
2023/11/06 10:57:40;;;;;;;3.90;2.60;;;;;;;16.15;50.59;98194.72;5014042;28;20034;-49
2023/11/06 11:00:15;;;;;;;3.72;0.88;;;;;;;16.04;50.76;98200.97;5030544;28;20037;-48
2023/11/06 11:02:43;;;;;;;2.42;0.70;;;;;;;16.00;51.03;98202.47;5030453;28;20044;-49
2023/11/06 11:05:14;;;;;;;1.13;0.65;;;;;;;15.95;51.24;98201.38;5013896;28;20034;-49
2023/11/06 11:07:41;;;;;;;5.40;0.60;;;;;;;15.91;51.14;98202.13;5030471;28;20025;-48
2023/11/06 11:10:12;;;;;;;2.17;1.10;;;;;;;16.00;51.07;98194.53;5036335;28;20030;-49
2023/11/06 11:12:39;;;;;;;2.15;0.70;;;;;;;16.07;51.08;98195.97;5091372;28;20020;-48
2023/11/06 11:15:07;;;;;;;1.80;0.70;;;;;;;16.14;50.66;98201.88;5092686;28;20038;-48
2023/11/06 11:17:34;;;;;;;2.55;0.70;;;;;;;16.20;50.72;98201.91;5092428;28;20051;-48
2023/11/06 11:20:05;;;;;;;1.85;0.63;;;;;;;16.28;50.74;98204.13;5091242;28;20048;-48
2023/11/06 11:22:34;;;;;;;2.15;0.70;;;;;;;16.44;49.54;98208.53;5092525;28;20486;-48
2023/11/06 11:25:01;;;;;;;1.27;0.50;;;;;;;16.50;48.71;98215.47;5091114;28;20432;-48
2023/11/06 11:27:28;;;;;;;1.15;0.77;;;;;;;16.63;48.24;98208.19;5091138;28;20081;-48
2023/11/06 11:29:53;;;;;;;1.23;0.68;;;;;;;16.66;48.41;98200.53;5092466;28;20031;-48
2023/11/06 11:32:49;;;;;;;1.25;0.50;;;;;;;16.71;48.55;98205.84;5091010;28;20028;-48